Time;durP1;ratioP1;P1;durP2;ratioP2;P2;SDS_P1;SDS_P2;PMS_P1;PMS_P2;Temp;Humidity;BMP_temperature;BMP_pressure;BME280_temperature;BME280_humidity;BME280_pressure;Samples;Min_cycle;Max_cycle;Signal;HPM_P1;HPM_P2
2022/06/07 00:02:06;;;;;;;5.63;5.33;;;18.40;22.50;;;;;;4994339;28;20455;-72
2022/06/07 00:04:32;;;;;;;5.40;4.90;;;18.30;22.90;;;;;;4995097;28;20768;-72
2022/06/07 00:06:58;;;;;;;5.63;5.23;;;18.30;24.00;;;;;;4994952;28;20411;-72
2022/06/07 00:09:24;;;;;;;5.20;4.90;;;18.30;24.10;;;;;;4993993;28;20459;-72
2022/06/07 00:11:49;;;;;;;4.80;4.50;;;18.40;24.10;;;;;;4993673;28;20180;-72
2022/06/07 00:14:15;;;;;;;4.70;4.40;;;18.10;21.80;;;;;;4994111;28;20178;-72
2022/06/07 00:16:40;;;;;;;4.80;4.60;;;18.20;24.00;;;;;;4993708;28;20185;-72
2022/06/07 00:19:06;;;;;;;4.90;4.60;;;18.20;24.00;;;;;;4993708;28;20657;-72
2022/06/07 00:21:32;;;;;;;4.40;4.20;;;18.00;23.80;;;;;;4993884;28;20200;-72
2022/06/07 00:24:00;;;;;;;4.20;4.00;;;18.00;23.80;;;;;;4994028;28;20634;-71
2022/06/07 00:26:27;;;;;;;4.53;4.23;;;18.00;24.00;;;;;;4993922;28;20180;-72
2022/06/07 00:28:53;;;;;;;4.23;4.03;;;17.80;23.70;;;;;;4993465;28;20832;-72
2022/06/07 00:31:19;;;;;;;5.00;4.70;;;17.90;23.80;;;;;;4993174;28;20601;-71
2022/06/07 00:33:45;;;;;;;4.23;3.93;;;17.90;24.60;;;;;;4992231;28;20184;-72
2022/06/07 00:36:11;;;;;;;3.60;3.40;;;17.80;25.00;;;;;;4992083;28;20180;-72
2022/06/07 00:38:36;;;;;;;4.20;3.80;;;17.80;25.60;;;;;;4993139;28;20262;-72
2022/06/07 00:41:05;;;;;;;3.83;3.53;;;17.70;25.90;;;;;;4992165;28;20466;-72
2022/06/07 00:43:31;;;;;;;3.07;2.87;;;17.70;25.90;;;;;;4992919;28;20191;-72
2022/06/07 00:45:59;;;;;;;3.10;2.90;;;17.60;26.50;;;;;;4992974;28;20506;-72
2022/06/07 00:48:25;;;;;;;3.70;2.57;;;17.60;26.70;;;;;;4993000;28;20212;-72
2022/06/07 00:51:05;;;;;;;3.00;2.80;;;17.50;27.20;;;;;;4993090;28;20454;-72
2022/06/07 00:53:33;;;;;;;3.13;2.93;;;17.50;27.60;;;;;;4992584;28;20483;-72
2022/06/07 00:56:00;;;;;;;2.97;2.77;;;17.40;27.70;;;;;;4992857;28;20419;-72
2022/06/07 00:58:28;;;;;;;4.07;2.70;;;17.40;27.70;;;;;;4992682;28;20431;-72
2022/06/07 01:00:54;;;;;;;2.73;2.47;;;17.10;28.70;;;;;;4992762;28;20506;-72
2022/06/07 01:03:21;;;;;;;2.87;2.63;;;17.10;29.10;;;;;;4992656;28;20447;-72
2022/06/07 01:05:47;;;;;;;4.10;2.90;;;17.20;28.90;;;;;;4991468;28;20416;-72
2022/06/07 01:10:57;;;;;;;2.60;2.40;;;17.10;29.10;;;;;;4992576;28;20439;-72
2022/06/07 01:13:27;;;;;;;2.37;2.07;;;17.10;29.20;;;;;;4992501;28;20424;-72
2022/06/07 01:16:01;;;;;;;3.40;2.37;;;17.10;29.30;;;;;;4991350;28;20267;-71
2022/06/07 01:18:28;;;;;;;3.17;2.50;;;17.00;29.50;;;;;;4991254;28;20451;-72
2022/06/07 01:21:14;;;;;;;2.43;2.00;;;17.00;29.80;;;;;;4992438;28;20897;-72
2022/06/07 01:23:40;;;;;;;2.43;2.20;;;17.00;29.70;;;;;;4991291;28;20499;-71
2022/06/07 01:26:06;;;;;;;2.40;2.00;;;16.90;29.40;;;;;;4992475;28;20494;-71
2022/06/07 01:28:31;;;;;;;2.53;2.33;;;16.90;29.60;;;;;;4992440;28;20463;-71
2022/06/07 01:30:57;;;;;;;2.13;1.93;;;16.90;29.70;;;;;;4992655;28;20181;-71
2022/06/07 01:33:23;;;;;;;2.27;1.37;;;16.90;30.10;;;;;;4992475;28;20191;-71
2022/06/07 01:35:59;;;;;;;2.20;1.83;;;16.90;30.60;;;;;;4991912;28;20933;-72
2022/06/07 01:38:25;;;;;;;2.60;1.70;;;16.80;30.90;;;;;;4992681;28;20200;-72
2022/06/07 01:43:35;;;;;;;2.20;1.70;;;16.80;31.70;;;;;;4992799;28;20184;-71
2022/06/07 01:46:04;;;;;;;3.83;2.00;;;16.80;30.50;;;;;;4991291;28;20793;-71
2022/06/07 01:48:30;;;;;;;4.77;2.17;;;16.70;30.70;;;;;;4992619;28;20228;-71
2022/06/07 01:51:03;;;;;;;2.50;2.23;;;16.60;31.60;;;;;;4992539;28;20502;-71
2022/06/07 01:53:29;;;;;;;2.63;1.97;;;16.50;32.40;;;;;;4996014;28;20668;-71
2022/06/07 01:56:07;;;;;;;1.90;1.50;;;16.50;33.50;;;;;;5011853;28;20410;-71
2022/06/07 01:58:33;;;;;;;6.03;2.10;;;16.50;33.10;;;;;;5012264;28;20234;-71
2022/06/07 02:00:59;;;;;;;1.70;1.27;;;16.50;33.50;;;;;;5012737;28;20829;-71
2022/06/07 02:03:24;;;;;;;2.13;1.80;;;16.50;33.60;;;;;;5012793;28;20422;-71
2022/06/07 02:06:02;;;;;;;3.77;2.07;;;16.50;33.70;;;;;;5013228;28;20262;-72
2022/06/07 02:08:28;;;;;;;2.87;2.07;;;16.40;33.70;;;;;;5035040;22;20293;-68
2022/06/07 02:10:55;;;;;;;3.10;1.93;;;16.40;34.10;;;;;;5015478;28;20901;-68
2022/06/07 02:13:21;;;;;;;2.50;1.50;;;16.40;34.60;;;;;;5015082;28;20452;-68
2022/06/07 02:15:47;;;;;;;2.30;2.00;;;16.40;34.90;;;;;;5015343;28;20772;-68
2022/06/07 02:18:14;;;;;;;2.47;1.90;;;16.40;35.30;;;;;;5015225;28;20423;-68
2022/06/07 02:20:40;;;;;;;2.40;2.17;;;16.30;35.10;;;;;;5015069;28;20548;-68
2022/06/07 02:23:08;;;;;;;1.90;1.40;;;16.30;34.90;;;;;;5014633;28;20414;-68
2022/06/07 02:25:41;;;;;;;2.10;1.80;;;16.30;34.50;;;;;;5014985;28;20414;-68
2022/06/07 02:28:07;;;;;;;2.40;2.00;;;16.30;34.60;;;;;;5015085;28;20469;-68
2022/06/07 02:30:33;;;;;;;3.20;2.20;;;16.30;34.50;;;;;;5014975;28;20415;-68
2022/06/07 02:32:59;;;;;;;2.73;1.90;;;16.30;35.00;;;;;;5014756;28;20433;-68
2022/06/07 02:35:24;;;;;;;1.90;1.70;;;16.30;34.00;;;;;;5013890;28;20188;-69
2022/06/07 02:37:50;;;;;;;2.30;1.90;;;16.30;33.90;;;;;;5015100;28;20195;-68
2022/06/07 02:40:15;;;;;;;2.07;1.57;;;16.30;33.90;;;;;;5014980;28;20239;-68
2022/06/07 02:42:41;;;;;;;2.27;1.83;;;16.30;34.00;;;;;;5014582;28;20641;-68
2022/06/07 02:45:07;;;;;;;3.13;1.80;;;16.10;34.90;;;;;;5014715;28;20180;-68
2022/06/07 02:47:33;;;;;;;3.03;1.80;;;16.20;34.90;;;;;;5014748;28;20205;-68
2022/06/07 02:49:58;;;;;;;2.07;1.57;;;16.10;34.60;;;;;;5014704;28;20418;-69
2022/06/07 02:52:24;;;;;;;2.20;1.70;;;16.20;34.30;;;;;;5014339;28;20180;-69
2022/06/07 02:54:49;;;;;;;2.27;2.00;;;16.10;34.90;;;;;;5014456;28;20284;-68
2022/06/07 02:57:15;;;;;;;5.23;1.80;;;16.10;36.40;;;;;;5014517;28;20196;-69
2022/06/07 02:59:41;;;;;;;2.30;1.80;;;16.20;36.40;;;;;;5014314;28;20199;-68
2022/06/07 03:02:06;;;;;;;2.00;1.50;;;16.10;36.70;;;;;;5014262;28;20656;-69
2022/06/07 03:04:33;;;;;;;1.70;1.33;;;16.10;35.70;;;;;;5014721;28;20180;-68
2022/06/07 03:07:00;;;;;;;2.37;1.47;;;16.10;36.40;;;;;;5014335;28;20171;-69
2022/06/07 03:09:26;;;;;;;3.17;1.73;;;16.10;36.40;;;;;;5014406;28;20423;-69
2022/06/07 03:11:52;;;;;;;1.63;1.43;;;16.10;36.40;;;;;;5013957;28;20414;-69
2022/06/07 03:14:17;;;;;;;2.43;1.47;;;16.10;35.80;;;;;;5014198;28;20430;-69
2022/06/07 03:16:43;;;;;;;2.20;1.57;;;16.10;35.70;;;;;;5014064;28;20645;-69
2022/06/07 03:19:09;;;;;;;2.30;1.90;;;16.00;35.50;;;;;;5014146;28;20199;-68
2022/06/07 03:21:35;;;;;;;2.57;1.33;;;16.00;36.20;;;;;;5012965;28;20211;-69
2022/06/07 03:24:01;;;;;;;2.47;1.63;;;16.00;36.30;;;;;;5013953;28;20413;-69
2022/06/07 03:26:26;;;;;;;3.40;1.57;;;15.80;37.10;;;;;;5013991;28;20215;-68
2022/06/07 03:28:52;;;;;;;1.70;1.10;;;15.80;36.60;;;;;;5013834;28;20580;-69
2022/06/07 03:31:18;;;;;;;2.07;1.40;;;15.80;36.10;;;;;;5014056;28;20474;-68
2022/06/07 03:33:47;;;;;;;1.83;1.50;;;15.90;36.20;;;;;;5013732;28;20496;-68
2022/06/07 03:36:24;;;;;;;2.70;1.93;;;15.90;36.20;;;;;;5013791;28;20567;-68
2022/06/07 03:38:50;;;;;;;2.53;1.80;;;15.70;37.30;;;;;;5013653;28;20434;-68
2022/06/07 03:41:19;;;;;;;3.40;1.70;;;15.80;37.80;;;;;;5013282;28;20463;-69
2022/06/07 03:43:45;;;;;;;3.13;1.87;;;15.80;37.10;;;;;;5013511;28;20441;-68
2022/06/07 03:46:33;;;;;;;1.50;1.10;;;15.70;36.90;;;;;;5013592;28;20413;-68
2022/06/07 03:48:59;;;;;;;1.87;1.37;;;15.70;37.20;;;;;;5013459;28;20438;-68
2022/06/07 03:51:27;;;;;;;2.63;1.37;;;15.80;36.10;;;;;;5013125;28;20417;-69
2022/06/07 03:53:53;;;;;;;1.87;1.20;;;15.80;36.80;;;;;;5013301;28;20413;-69
2022/06/07 03:56:21;;;;;;;4.73;1.60;;;15.80;37.00;;;;;;5013564;28;20774;-68
2022/06/07 03:58:47;;;;;;;3.63;1.73;;;15.80;36.60;;;;;;5013313;28;20437;-68
2022/06/07 04:01:16;;;;;;;2.10;1.60;;;15.80;36.10;;;;;;5013105;28;20469;-68
2022/06/07 04:03:47;;;;;;;2.27;2.07;;;15.90;36.20;;;;;;5013139;28;20183;-68
2022/06/07 04:06:25;;;;;;;2.43;1.77;;;15.90;36.20;;;;;;5011857;28;20422;-68
2022/06/07 04:08:51;;;;;;;2.30;1.77;;;15.90;36.20;;;;;;5012711;28;20457;-68
2022/06/07 04:11:20;;;;;;;3.53;1.30;;;16.00;36.30;;;;;;5012769;28;20484;-68
2022/06/07 04:13:46;;;;;;;3.43;1.87;;;16.00;36.30;;;;;;5011657;28;20458;-69
2022/06/07 04:16:14;;;;;;;3.80;2.47;;;16.10;36.40;;;;;;5012166;28;20477;-69
2022/06/07 04:18:40;;;;;;;2.57;1.50;;;16.10;36.40;;;;;;5011678;28;21133;-69
2022/06/07 04:21:06;;;;;;;2.50;1.70;;;16.10;36.40;;;;;;5011509;28;20520;-69
2022/06/07 04:23:32;;;;;;;1.90;1.50;;;16.10;36.80;;;;;;5012755;28;20411;-68
2022/06/07 04:26:06;;;;;;;3.40;1.93;;;16.20;36.40;;;;;;5012864;28;20942;-68
2022/06/07 04:28:32;;;;;;;2.47;2.27;;;16.20;36.40;;;;;;5012749;28;20448;-69
2022/06/07 04:30:57;;;;;;;2.20;1.90;;;16.20;36.50;;;;;;5012854;28;20764;-69
2022/06/07 04:33:22;;;;;;;1.80;1.47;;;16.10;37.00;;;;;;5012259;28;20578;-68
2022/06/07 04:35:48;;;;;;;2.00;1.50;;;16.20;37.00;;;;;;5011184;28;20180;-68
2022/06/07 04:38:13;;;;;;;2.50;1.53;;;16.20;36.50;;;;;;5012761;28;20195;-68
2022/06/07 04:40:41;;;;;;;2.03;1.60;;;16.20;37.20;;;;;;5012723;28;20216;-68
2022/06/07 04:43:09;;;;;;;2.03;1.30;;;16.20;36.50;;;;;;5012204;28;20271;-68
2022/06/07 04:45:35;;;;;;;2.20;1.80;;;16.10;37.50;;;;;;5012420;28;20497;-69
2022/06/07 04:48:01;;;;;;;3.07;2.63;;;16.10;38.00;;;;;;5012293;28;20442;-68
2022/06/07 04:50:26;;;;;;;2.47;1.57;;;16.10;38.30;;;;;;5012433;28;20419;-68
2022/06/07 04:52:52;;;;;;;4.27;1.90;;;16.20;38.60;;;;;;5011929;28;20546;-69
2022/06/07 04:55:17;;;;;;;2.47;1.30;;;16.20;37.30;;;;;;5012414;28;20230;-69
2022/06/07 04:57:43;;;;;;;2.00;1.60;;;16.30;37.60;;;;;;5012380;28;20199;-68
2022/06/07 05:00:15;;;;;;;2.37;1.90;;;16.40;37.50;;;;;;5012141;28;20465;-68
2022/06/07 05:02:45;;;;;;;2.10;1.80;;;16.60;36.20;;;;;;5012046;28;20172;-68
2022/06/07 05:05:12;;;;;;;5.37;2.27;;;16.70;34.90;;;;;;5012130;28;20407;-69
2022/06/07 05:07:38;;;;;;;2.20;1.70;;;16.80;34.40;;;;;;5011966;28;20505;-68
2022/06/07 05:10:06;;;;;;;2.13;1.77;;;17.00;34.50;;;;;;5012078;28;20502;-69
2022/06/07 05:12:32;;;;;;;2.50;1.90;;;17.00;33.50;;;;;;5011875;28;20923;-69
2022/06/07 05:14:59;;;;;;;2.20;1.60;;;17.10;33.30;;;;;;5012003;28;20419;-69
2022/06/07 05:17:24;;;;;;;2.43;1.70;;;17.20;33.70;;;;;;5011936;28;20439;-68
2022/06/07 05:19:50;;;;;;;10.30;2.93;;;17.30;33.60;;;;;;5011736;28;20463;-68
2022/06/07 05:22:15;;;;;;;3.07;1.97;;;17.40;32.80;;;;;;5011542;28;20243;-68
2022/06/07 05:24:41;;;;;;;4.60;3.03;;;17.50;32.90;;;;;;5011969;28;20282;-68
2022/06/07 05:27:10;;;;;;;6.20;2.27;;;17.60;31.30;;;;;;5011916;28;20168;-68
2022/06/07 05:29:53;;;;;;;1.90;1.70;;;17.60;30.90;;;;;;5012034;28;20180;-68
2022/06/07 05:32:20;;;;;;;2.30;2.10;;;17.70;30.70;;;;;;5010483;28;20421;-67
2022/06/07 05:34:46;;;;;;;58.07;14.93;;;17.70;31.20;;;;;;5011740;28;20422;-68
2022/06/07 05:37:18;;;;;;;14.80;4.63;;;17.90;31.00;;;;;;5011759;28;20429;-68
2022/06/07 05:39:43;;;;;;;3.57;2.50;;;18.30;29.70;;;;;;5011692;28;20457;-68
2022/06/07 05:42:11;;;;;;;3.33;3.00;;;18.60;28.50;;;;;;5011505;28;20415;-68
2022/06/07 05:44:38;;;;;;;12.10;4.27;;;19.00;27.90;;;;;;5013492;28;20745;-68
2022/06/07 05:47:04;;;;;;;11.53;5.00;;;19.30;27.50;;;;;;5015627;28;20472;-68
2022/06/07 05:49:30;;;;;;;4.70;4.30;;;19.50;25.70;;;;;;5015557;28;20450;-68
2022/06/07 05:51:55;;;;;;;4.17;3.97;;;19.60;25.00;;;;;;5015405;28;20501;-67
2022/06/07 05:54:21;;;;;;;4.70;4.40;;;19.60;24.90;;;;;;5015518;28;20188;-68
2022/06/07 05:56:47;;;;;;;5.77;4.57;;;19.60;24.90;;;;;;5015626;28;20251;-68
2022/06/07 05:59:12;;;;;;;4.73;4.43;;;19.50;24.80;;;;;;5015263;28;20268;-68
2022/06/07 06:01:38;;;;;;;4.77;4.47;;;19.40;24.80;;;;;;5015358;28;20269;-68
2022/06/07 06:04:06;;;;;;;4.30;4.10;;;19.40;24.80;;;;;;5015384;28;20180;-68
2022/06/07 06:06:32;;;;;;;4.60;4.30;;;19.30;24.70;;;;;;5015433;28;20421;-68
2022/06/07 06:11:42;;;;;;;5.90;4.90;;;19.40;24.80;;;;;;5015034;28;20191;-68
2022/06/07 06:14:07;;;;;;;6.20;4.23;;;19.50;24.90;;;;;;5015061;28;20415;-69
2022/06/07 06:16:33;;;;;;;4.97;4.67;;;19.60;24.20;;;;;;5015154;28;20180;-68
2022/06/07 06:19:00;;;;;;;5.43;4.50;;;19.80;23.40;;;;;;5015066;28;20208;-69
2022/06/07 06:21:31;;;;;;;7.23;6.53;;;19.90;24.30;;;;;;5013800;28;20215;-69
2022/06/07 06:23:59;;;;;;;5.90;5.60;;;20.20;23.30;;;;;;5015245;28;20422;-69
2022/06/07 06:26:26;;;;;;;5.10;4.80;;;20.30;22.10;;;;;;5015085;28;20451;-69
2022/06/07 06:28:53;;;;;;;5.87;5.57;;;20.40;22.70;;;;;;5013962;28;20443;-69
2022/06/07 06:31:19;;;;;;;6.87;6.20;;;20.70;21.40;;;;;;5014706;28;20469;-69
2022/06/07 06:33:48;;;;;;;7.10;6.80;;;21.30;22.30;;;;;;5015129;28;20423;-69
2022/06/07 06:36:16;;;;;;;10.47;10.00;;;23.00;20.20;;;;;;5015072;28;20415;-69
2022/06/07 06:38:43;;;;;;;12.03;11.33;;;24.60;15.20;;;;;;5014892;28;20438;-69
2022/06/07 06:41:13;;;;;;;11.83;11.33;;;25.60;15.80;;;;;;5014682;28;20462;-69
2022/06/07 06:43:39;;;;;;;12.50;12.00;;;26.90;12.40;;;;;;5014783;28;20510;-69
2022/06/07 06:46:05;;;;;;;13.20;12.70;;;28.00;10.10;;;;;;5014759;28;20959;-69
2022/06/07 06:48:31;;;;;;;13.03;12.53;;;28.90;8.40;;;;;;5014743;28;20577;-69
2022/06/07 06:51:01;;;;;;;14.40;13.70;;;29.10;8.50;;;;;;5012318;28;20438;-70
2022/06/07 06:53:27;;;;;;;13.60;13.00;;;28.90;7.60;;;;;;5010728;28;20601;-69
2022/06/07 06:55:55;;;;;;;13.33;12.73;;;28.30;7.80;;;;;;5009975;28;20472;-69
2022/06/07 06:58:21;;;;;;;12.57;12.07;;;27.30;8.80;;;;;;5010851;28;20478;-69
2022/06/07 07:00:46;;;;;;;12.60;12.10;;;26.50;9.70;;;;;;5010565;28;21049;-69
2022/06/07 07:03:12;;;;;;;12.27;11.77;;;25.90;11.50;;;;;;5010429;28;20245;-68
2022/06/07 07:05:37;;;;;;;11.40;10.90;;;25.20;12.10;;;;;;5011063;28;20188;-68
2022/06/07 07:08:03;;;;;;;11.37;10.97;;;24.70;12.40;;;;;;5009884;28;20230;-68
2022/06/07 07:10:29;;;;;;;10.80;10.30;;;23.90;14.00;;;;;;5010357;28;20199;-68
2022/06/07 07:12:54;;;;;;;12.13;11.60;;;23.60;15.20;;;;;;5010963;28;20187;-68
2022/06/07 07:15:20;;;;;;;11.30;10.70;;;23.60;15.40;;;;;;5010210;28;20734;-69
2022/06/07 07:17:47;;;;;;;10.80;10.30;;;24.00;15.10;;;;;;5009894;28;20581;-70
2022/06/07 07:20:13;;;;;;;11.93;11.20;;;24.40;15.20;;;;;;5010608;28;20507;-69
2022/06/07 07:22:38;;;;;;;11.37;10.97;;;25.40;13.30;;;;;;5009627;28;20463;-69
2022/06/07 07:25:06;;;;;;;12.90;12.40;;;26.40;11.70;;;;;;5010291;28;20554;-74
2022/06/07 07:27:32;;;;;;;14.30;13.70;;;27.00;10.10;;;;;;5010689;28;20219;-68
2022/06/07 07:29:59;;;;;;;12.83;12.33;;;27.20;9.30;;;;;;5013921;28;20904;-69
2022/06/07 07:32:24;;;;;;;13.30;12.80;;;27.00;9.60;;;;;;5013660;28;20172;-68
2022/06/07 07:34:50;;;;;;;13.10;12.47;;;26.80;9.40;;;;;;5013638;28;20924;-68
2022/06/07 07:37:17;;;;;;;14.07;13.37;;;26.50;10.10;;;;;;5013445;28;20199;-68
2022/06/07 07:39:43;;;;;;;13.60;13.10;;;26.20;10.60;;;;;;5008190;28;20287;-68
2022/06/07 07:42:08;;;;;;;13.97;13.27;;;26.10;10.90;;;;;;5012496;28;20493;-68
2022/06/07 07:44:34;;;;;;;12.53;11.93;;;25.80;11.40;;;;;;5012924;28;20660;-68
2022/06/07 07:46:59;;;;;;;13.60;13.10;;;25.80;11.40;;;;;;5013635;28;20242;-67
2022/06/07 07:49:25;;;;;;;12.73;12.23;;;25.60;11.30;;;;;;5013453;28;20184;-68
2022/06/07 07:51:52;;;;;;;12.47;11.97;;;25.30;11.10;;;;;;5013081;28;20672;-68
2022/06/07 07:54:21;;;;;;;12.30;11.80;;;25.40;11.20;;;;;;5013241;28;20187;-68
2022/06/07 07:56:47;;;;;;;13.90;13.20;;;25.90;11.80;;;;;;5013541;28;20419;-68
2022/06/07 07:59:19;;;;;;;13.93;13.33;;;27.00;10.70;;;;;;5012127;28;20466;-68
2022/06/07 08:01:45;;;;;;;13.60;13.00;;;28.00;8.10;;;;;;5013088;28;20461;-68
2022/06/07 08:04:10;;;;;;;14.23;13.63;;;28.30;8.00;;;;;;5013966;28;20885;-68
2022/06/07 08:06:36;;;;;;;13.73;13.23;;;28.40;6.80;;;;;;5013223;28;20179;-68
2022/06/07 08:09:04;;;;;;;14.13;13.53;;;28.00;6.60;;;;;;5013303;28;20218;-69
2022/06/07 08:11:32;;;;;;;14.03;13.43;;;27.70;7.00;;;;;;5012406;28;20575;-69
2022/06/07 08:13:58;;;;;;;14.43;13.83;;;27.50;7.40;;;;;;5013128;28;20502;-69
2022/06/07 08:16:24;;;;;;;14.63;14.03;;;27.80;7.70;;;;;;5013226;28;20459;-68
2022/06/07 08:18:50;;;;;;;15.60;14.90;;;27.90;7.10;;;;;;5013232;28;20470;-72
2022/06/07 08:21:22;;;;;;;14.73;14.23;;;27.90;6.80;;;;;;5012886;28;20215;-68
2022/06/07 08:23:49;;;;;;;15.73;14.70;;;27.70;7.20;;;;;;5010260;28;20251;-69
2022/06/07 08:26:16;;;;;;;13.53;13.00;;;26.80;7.60;;;;;;5011880;28;20419;-68
2022/06/07 08:28:43;;;;;;;13.67;13.07;;;26.90;7.60;;;;;;5010307;28;20451;-69
2022/06/07 08:31:14;;;;;;;13.93;13.43;;;27.30;8.30;;;;;;5011203;28;20927;-69
2022/06/07 08:39:09;;;;;;;14.47;13.67;;;28.30;6.00;;;;;;5012875;28;20438;-69
2022/06/07 08:41:48;;;;;;;14.90;13.80;;;28.60;4.90;;;;;;5010632;28;20427;-69
2022/06/07 08:44:28;;;;;;;15.90;15.10;;;28.70;4.20;;;;;;5012077;28;20464;-68
2022/06/07 08:47:02;;;;;;;15.47;14.67;;;28.80;3.70;;;;;;5012596;28;20403;-68
2022/06/07 08:49:28;;;;;;;14.97;13.70;;;28.50;4.00;;;;;;5012597;28;20844;-69
2022/06/07 08:52:05;;;;;;;13.50;12.90;;;28.20;4.70;;;;;;5012384;28;20933;-68
2022/06/07 08:54:36;;;;;;;13.57;13.07;;;28.00;5.90;;;;;;5011282;28;20430;-68
2022/06/07 08:57:21;;;;;;;13.20;12.70;;;27.80;4.50;;;;;;5012533;28;20442;-68
2022/06/07 08:59:49;;;;;;;14.10;13.43;;;27.70;4.40;;;;;;5012362;28;20466;-67
2022/06/07 09:02:39;;;;;;;14.53;13.93;;;27.20;5.30;;;;;;5011084;28;20793;-67
2022/06/07 09:05:05;;;;;;;13.83;13.10;;;27.00;6.80;;;;;;5012386;28;20469;-67
2022/06/07 09:07:30;;;;;;;15.10;14.27;;;27.10;5.80;;;;;;5012373;28;20450;-69
2022/06/07 09:12:58;;;;;;;15.17;14.47;;;26.80;5.40;;;;;;5012602;28;20210;-68
2022/06/07 09:15:25;;;;;;;14.53;13.97;;;26.60;5.60;;;;;;5013016;28;20497;-69
2022/06/07 09:17:58;;;;;;;15.57;14.93;;;26.70;5.60;;;;;;5012371;28;20869;-68
2022/06/07 09:20:46;;;;;;;14.70;14.00;;;26.80;5.20;;;;;;5012626;28;20454;-68
2022/06/07 09:23:20;;;;;;;14.77;13.87;;;26.80;5.90;;;;;;5012249;28;20767;-68
2022/06/07 09:25:49;;;;;;;15.70;14.20;;;26.70;5.20;;;;;;5012555;28;20497;-68
2022/06/07 09:28:19;;;;;;;14.60;14.00;;;26.70;5.00;;;;;;5012169;28;20430;-67
2022/06/07 09:30:54;;;;;;;15.23;14.63;;;26.80;4.90;;;;;;5012658;28;20430;-72
2022/06/07 09:33:22;;;;;;;14.00;13.50;;;26.40;5.20;;;;;;5014110;28;20410;-73
2022/06/07 09:35:48;;;;;;;15.37;14.67;;;26.50;5.10;;;;;;5013101;28;20427;-70
2022/06/07 09:38:18;;;;;;;14.40;13.90;;;26.50;5.90;;;;;;5012479;28;20435;-73
2022/06/07 09:40:55;;;;;;;13.80;13.30;;;26.40;5.60;;;;;;5012242;28;20454;-72
2022/06/07 09:43:26;;;;;;;13.73;13.20;;;26.40;5.70;;;;;;5012121;28;20770;-72
2022/06/07 09:46:05;;;;;;;13.50;13.00;;;26.50;5.70;;;;;;5012590;28;20410;-71
2022/06/07 09:48:42;;;;;;;13.90;13.40;;;26.50;4.30;;;;;;5013041;28;20441;-71
2022/06/07 09:51:14;;;;;;;13.37;12.87;;;26.30;4.80;;;;;;5012521;28;20430;-74
2022/06/07 09:53:46;;;;;;;14.60;13.87;;;25.60;5.00;;;;;;5015024;28;20422;-74
2022/06/07 09:56:31;;;;;;;14.97;14.37;;;25.50;5.70;;;;;;5015231;28;20419;-73
2022/06/07 09:59:30;;;;;;;13.60;13.10;;;25.30;6.30;;;;;;5013488;28;20513;-74
2022/06/07 10:02:24;;;;;;;14.03;13.53;;;24.90;6.70;;;;;;5014411;28;20778;-73
2022/06/07 10:05:45;;;;;;;13.57;13.07;;;25.10;7.40;;;;;;5014287;28;20993;-73
2022/06/07 10:08:14;;;;;;;13.30;12.80;;;25.20;6.40;;;;;;5002627;28;20534;-74
2022/06/07 10:11:02;;;;;;;14.40;13.80;;;25.00;7.20;;;;;;5015646;28;20426;-75
2022/06/07 10:13:39;;;;;;;13.90;13.40;;;25.30;6.50;;;;;;5017960;28;20407;-74
2022/06/07 10:16:21;;;;;;;14.70;14.00;;;25.40;5.20;;;;;;5018597;28;20429;-74
2022/06/07 10:19:15;;;;;;;13.90;13.40;;;25.50;5.10;;;;;;5018828;28;20430;-74
2022/06/07 10:22:10;;;;;;;13.57;13.07;;;25.40;5.70;;;;;;5017279;28;20498;-73
2022/06/07 10:25:09;;;;;;;13.60;13.10;;;25.30;6.00;;;;;;5015992;28;20423;-74
2022/06/07 10:27:37;;;;;;;13.60;13.10;;;25.10;5.80;;;;;;5015926;28;20518;-73
2022/06/07 10:30:27;;;;;;;13.47;12.97;;;25.10;6.10;;;;;;5015145;28;20420;-74
2022/06/07 10:33:43;;;;;;;13.80;13.20;;;25.10;6.40;;;;;;5017788;28;20423;-74
2022/06/07 10:36:39;;;;;;;13.80;13.30;;;25.30;5.60;;;;;;4984100;28;20955;-74
2022/06/07 10:39:21;;;;;;;14.60;14.07;;;25.50;5.70;;;;;;5016298;28;20545;-74
2022/06/07 10:42:16;;;;;;;14.30;13.70;;;25.90;4.60;;;;;;5017721;28;20437;-73
2022/06/07 10:44:49;;;;;;;14.50;14.00;;;26.20;4.50;;;;;;5018305;28;20403;-74
2022/06/07 10:47:22;;;;;;;14.03;13.53;;;26.40;4.30;;;;;;5016857;28;20415;-73
2022/06/07 10:49:57;;;;;;;13.60;13.10;;;26.50;4.90;;;;;;5017915;28;20905;-74
2022/06/07 10:52:27;;;;;;;14.20;13.60;;;26.60;4.00;;;;;;5017371;28;20545;-74
2022/06/07 10:54:56;;;;;;;13.63;13.10;;;26.20;5.20;;;;;;5015907;28;20418;-74
2022/06/07 10:57:36;;;;;;;14.00;13.50;;;26.40;4.50;;;;;;5017699;28;20474;-73
2022/06/07 11:00:19;;;;;;;14.50;13.90;;;26.60;3.80;;;;;;5019276;28;20852;-74
2022/06/07 11:03:07;;;;;;;13.37;12.87;;;26.70;3.00;;;;;;5020062;28;20417;-74
2022/06/07 11:11:21;;;;;;;13.37;12.87;;;26.20;3.40;;;;;;5018140;28;20494;-74
2022/06/07 11:14:21;;;;;;;13.00;12.50;;;25.90;4.80;;;;;;5018215;28;20421;-74
2022/06/07 11:17:18;;;;;;;13.73;13.20;;;25.90;4.90;;;;;;5018888;28;20457;-74
2022/06/07 11:19:44;;;;;;;13.67;13.17;;;26.20;4.10;;;;;;5017473;28;20541;-74
2022/06/07 11:22:19;;;;;;;13.50;13.00;;;26.30;3.80;;;;;;5017473;28;20446;-74
2022/06/07 11:24:59;;;;;;;13.10;12.60;;;26.40;5.00;;;;;;5015942;28;20227;-74
2022/06/07 11:27:26;;;;;;;14.30;13.70;;;26.50;4.20;;;;;;5003570;28;20546;-73
2022/06/07 11:30:20;;;;;;;14.53;13.93;;;26.30;3.80;;;;;;4996681;28;20976;-74
2022/06/07 11:32:53;;;;;;;14.03;13.53;;;26.50;4.20;;;;;;4999253;28;20927;-74
2022/06/07 11:35:49;;;;;;;14.50;13.80;;;26.50;3.40;;;;;;5004799;28;20415;-71
2022/06/07 11:38:17;;;;;;;14.37;13.87;;;26.30;3.60;;;;;;5013781;28;20433;-71
2022/06/07 11:40:44;;;;;;;13.40;12.90;;;26.00;4.20;;;;;;5012021;28;20464;-72
2022/06/07 11:43:47;;;;;;;13.80;13.30;;;26.10;4.30;;;;;;4993188;28;20436;-72
2022/06/07 11:46:33;;;;;;;14.70;14.00;;;26.00;3.40;;;;;;5012304;28;20433;-71
2022/06/07 11:49:22;;;;;;;14.10;13.50;;;26.00;3.60;;;;;;4997664;28;20843;-71
2022/06/07 11:52:11;;;;;;;13.63;13.13;;;25.50;3.70;;;;;;4993518;28;20423;-73
2022/06/07 11:54:54;;;;;;;13.60;13.10;;;25.80;4.70;;;;;;4997149;28;20437;-72
2022/06/07 11:57:28;;;;;;;13.40;12.90;;;26.30;4.70;;;;;;5013255;28;20437;-72
2022/06/07 12:00:17;;;;;;;14.50;14.00;;;26.60;2.90;;;;;;5007611;28;20975;-72
2022/06/07 12:03:08;;;;;;;14.10;13.60;;;27.10;2.80;;;;;;4993388;28;20420;-73
2022/06/07 12:05:46;;;;;;;13.77;13.27;;;27.40;2.60;;;;;;5004012;28;20423;-71
2022/06/07 12:08:39;;;;;;;14.33;13.83;;;27.70;2.60;;;;;;5013034;28;20459;-72
2022/06/07 12:11:20;;;;;;;14.20;13.70;;;28.20;1.10;;;;;;5013225;28;20418;-74
2022/06/07 12:13:58;;;;;;;14.90;14.30;;;28.50;1.00;;;;;;5013467;28;20794;-72
2022/06/07 12:16:33;;;;;;;13.90;13.40;;;28.30;1.10;;;;;;5013094;28;20434;-71
2022/06/07 12:19:00;;;;;;;15.07;14.37;;;28.50;1.80;;;;;;5013511;28;20438;-71
2022/06/07 12:21:26;;;;;;;14.40;13.90;;;28.40;1.00;;;;;;4993103;28;20494;-72
2022/06/07 12:24:10;;;;;;;15.43;14.53;;;28.50;1.10;;;;;;4992288;28;20431;-71
2022/06/07 12:26:36;;;;;;;14.30;13.60;;;28.50;1.10;;;;;;5012426;28;20434;-71
2022/06/07 12:29:11;;;;;;;13.90;13.30;;;28.60;1.40;;;;;;5013216;28;20438;-71
2022/06/07 12:31:47;;;;;;;14.30;13.60;;;28.40;1.00;;;;;;5011293;28;21756;-71
2022/06/07 12:34:21;;;;;;;14.30;13.80;;;28.10;1.00;;;;;;5012902;28;20438;-72
2022/06/07 12:37:01;;;;;;;15.03;14.43;;;27.90;1.30;;;;;;5004075;28;20447;-70
2022/06/07 12:39:28;;;;;;;14.60;14.00;;;27.70;1.90;;;;;;5008278;28;20441;-68
2022/06/07 12:41:57;;;;;;;14.73;13.97;;;27.70;1.80;;;;;;5011937;28;20415;-68
2022/06/07 12:44:32;;;;;;;14.10;13.60;;;27.70;3.10;;;;;;5011579;28;20431;-67
2022/06/07 12:47:01;;;;;;;14.00;13.50;;;27.40;2.90;;;;;;5002823;28;20418;-68
2022/06/07 12:49:30;;;;;;;13.97;13.43;;;27.30;2.00;;;;;;5012923;28;20896;-68
2022/06/07 12:52:05;;;;;;;14.10;13.60;;;27.10;2.80;;;;;;5012309;28;20496;-69
2022/06/07 12:54:33;;;;;;;12.73;12.23;;;27.00;2.70;;;;;;5012251;28;20511;-68
2022/06/07 12:57:01;;;;;;;13.33;12.80;;;27.00;3.90;;;;;;5013011;28;20490;-68
2022/06/07 12:59:33;;;;;;;12.90;12.40;;;26.80;2.60;;;;;;5012555;28;20598;-68
2022/06/07 13:01:59;;;;;;;13.80;13.30;;;27.00;3.30;;;;;;5012331;28;20624;-67
2022/06/07 13:04:29;;;;;;;13.60;13.10;;;27.10;2.80;;;;;;5012622;28;20407;-68
2022/06/07 13:07:16;;;;;;;13.60;13.10;;;27.20;2.90;;;;;;5012689;28;20155;-68
2022/06/07 13:09:45;;;;;;;13.63;13.13;;;27.30;2.90;;;;;;5012236;28;20423;-67
2022/06/07 13:12:18;;;;;;;14.53;13.60;;;27.30;2.90;;;;;;5012266;28;20751;-69
2022/06/07 13:14:44;;;;;;;14.23;13.73;;;27.50;3.00;;;;;;5012564;28;20402;-68
2022/06/07 13:17:30;;;;;;;14.43;13.90;;;27.60;3.10;;;;;;5012411;28;20900;-67
2022/06/07 13:19:55;;;;;;;14.60;14.00;;;27.80;2.50;;;;;;5012266;28;20536;-68
2022/06/07 13:22:23;;;;;;;13.97;13.47;;;27.80;3.10;;;;;;5012331;28;20893;-67